sensor_id;sensor_type;location;lat;lon;timestamp;P1;durP1;ratioP1;P2;durP2;ratioP2
24034;SDS011;12242;50.952;4.678;2024-01-15T00:01:32;9.40;;;2.90;;
24034;SDS011;12242;50.952;4.678;2024-01-15T00:04:00;8.55;;;2.75;;
24034;SDS011;12242;50.952;4.678;2024-01-15T00:06:28;8.80;;;3.10;;
24034;SDS011;12242;50.952;4.678;2024-01-15T00:08:56;9.23;;;2.80;;
24034;SDS011;12242;50.952;4.678;2024-01-15T00:11:27;9.40;;;2.95;;
24034;SDS011;12242;50.952;4.678;2024-01-15T00:13:56;7.88;;;2.35;;
24034;SDS011;12242;50.952;4.678;2024-01-15T00:16:25;4.47;;;1.90;;
24034;SDS011;12242;50.952;4.678;2024-01-15T00:18:53;6.00;;;2.42;;
24034;SDS011;12242;50.952;4.678;2024-01-15T00:21:21;10.38;;;2.90;;
24034;SDS011;12242;50.952;4.678;2024-01-15T00:23:49;10.57;;;3.13;;
24034;SDS011;12242;50.952;4.678;2024-01-15T00:26:16;6.35;;;2.40;;
24034;SDS011;12242;50.952;4.678;2024-01-15T00:28:44;12.60;;;1.92;;
24034;SDS011;12242;50.952;4.678;2024-01-15T00:31:12;4.85;;;1.58;;
24034;SDS011;12242;50.952;4.678;2024-01-15T00:33:42;6.88;;;2.28;;
24034;SDS011;12242;50.952;4.678;2024-01-15T00:36:11;10.00;;;2.40;;
24034;SDS011;12242;50.952;4.678;2024-01-15T00:38:39;5.88;;;2.15;;
24034;SDS011;12242;50.952;4.678;2024-01-15T00:41:11;9.00;;;2.35;;
24034;SDS011;12242;50.952;4.678;2024-01-15T00:43:38;7.85;;;2.20;;
24034;SDS011;12242;50.952;4.678;2024-01-15T00:46:06;5.50;;;2.35;;
24034;SDS011;12242;50.952;4.678;2024-01-15T00:48:36;5.28;;;2.22;;
24034;SDS011;12242;50.952;4.678;2024-01-15T00:51:04;6.20;;;2.28;;
24034;SDS011;12242;50.952;4.678;2024-01-15T00:53:32;4.05;;;1.45;;
24034;SDS011;12242;50.952;4.678;2024-01-15T00:56:00;5.20;;;1.65;;
24034;SDS011;12242;50.952;4.678;2024-01-15T00:58:31;6.20;;;2.05;;
24034;SDS011;12242;50.952;4.678;2024-01-15T01:01:02;4.55;;;1.63;;
24034;SDS011;12242;50.952;4.678;2024-01-15T01:03:30;5.28;;;2.00;;
24034;SDS011;12242;50.952;4.678;2024-01-15T01:05:59;4.35;;;1.33;;
24034;SDS011;12242;50.952;4.678;2024-01-15T01:08:27;6.35;;;2.15;;
24034;SDS011;12242;50.952;4.678;2024-01-15T01:10:55;5.25;;;1.67;;
24034;SDS011;12242;50.952;4.678;2024-01-15T01:13:28;4.65;;;1.58;;
24034;SDS011;12242;50.952;4.678;2024-01-15T01:15:56;6.32;;;1.50;;
24034;SDS011;12242;50.952;4.678;2024-01-15T01:18:24;4.57;;;0.85;;
24034;SDS011;12242;50.952;4.678;2024-01-15T01:20:52;6.78;;;1.48;;
24034;SDS011;12242;50.952;4.678;2024-01-15T01:23:20;4.95;;;1.98;;
24034;SDS011;12242;50.952;4.678;2024-01-15T01:25:47;4.35;;;1.63;;
24034;SDS011;12242;50.952;4.678;2024-01-15T01:28:18;8.38;;;1.63;;
24034;SDS011;12242;50.952;4.678;2024-01-15T01:30:47;3.30;;;1.27;;
24034;SDS011;12242;50.952;4.678;2024-01-15T01:33:16;3.72;;;1.45;;
24034;SDS011;12242;50.952;4.678;2024-01-15T01:35:46;3.65;;;1.25;;
24034;SDS011;12242;50.952;4.678;2024-01-15T01:38:16;2.10;;;1.10;;
24034;SDS011;12242;50.952;4.678;2024-01-15T01:40:44;5.93;;;1.63;;
24034;SDS011;12242;50.952;4.678;2024-01-15T01:43:13;6.38;;;1.38;;
24034;SDS011;12242;50.952;4.678;2024-01-15T01:45:41;4.22;;;1.20;;
24034;SDS011;12242;50.952;4.678;2024-01-15T01:48:09;4.38;;;1.50;;
24034;SDS011;12242;50.952;4.678;2024-01-15T01:50:37;3.10;;;1.65;;
24034;SDS011;12242;50.952;4.678;2024-01-15T01:53:05;4.40;;;1.40;;
24034;SDS011;12242;50.952;4.678;2024-01-15T01:55:33;3.17;;;1.00;;
24034;SDS011;12242;50.952;4.678;2024-01-15T01:58:06;2.60;;;1.00;;
24034;SDS011;12242;50.952;4.678;2024-01-15T02:00:34;3.20;;;1.20;;
24034;SDS011;12242;50.952;4.678;2024-01-15T02:03:03;2.22;;;0.80;;
24034;SDS011;12242;50.952;4.678;2024-01-15T02:05:31;1.27;;;0.77;;
24034;SDS011;12242;50.952;4.678;2024-01-15T02:08:00;3.92;;;1.58;;
24034;SDS011;12242;50.952;4.678;2024-01-15T02:10:29;2.20;;;1.20;;
24034;SDS011;12242;50.952;4.678;2024-01-15T02:12:57;2.45;;;1.17;;
24034;SDS011;12242;50.952;4.678;2024-01-15T02:15:28;3.85;;;1.08;;
24034;SDS011;12242;50.952;4.678;2024-01-15T02:18:01;2.85;;;1.33;;
24034;SDS011;12242;50.952;4.678;2024-01-15T02:20:36;1.50;;;0.93;;
24034;SDS011;12242;50.952;4.678;2024-01-15T02:25:41;3.42;;;1.00;;
24034;SDS011;12242;50.952;4.678;2024-01-15T02:28:13;2.40;;;0.90;;
24034;SDS011;12242;50.952;4.678;2024-01-15T02:30:43;3.92;;;1.23;;
24034;SDS011;12242;50.952;4.678;2024-01-15T02:33:11;1.70;;;0.50;;
24034;SDS011;12242;50.952;4.678;2024-01-15T02:35:39;1.17;;;0.40;;
24034;SDS011;12242;50.952;4.678;2024-01-15T02:38:08;1.92;;;0.75;;
24034;SDS011;12242;50.952;4.678;2024-01-15T02:40:38;6.68;;;0.98;;
24034;SDS011;12242;50.952;4.678;2024-01-15T02:43:09;2.35;;;0.65;;
24034;SDS011;12242;50.952;4.678;2024-01-15T02:45:40;1.30;;;0.40;;
24034;SDS011;12242;50.952;4.678;2024-01-15T02:48:08;1.05;;;0.47;;
24034;SDS011;12242;50.952;4.678;2024-01-15T02:50:37;1.85;;;0.80;;
24034;SDS011;12242;50.952;4.678;2024-01-15T02:53:04;0.75;;;0.40;;
24034;SDS011;12242;50.952;4.678;2024-01-15T02:55:34;2.00;;;0.82;;
24034;SDS011;12242;50.952;4.678;2024-01-15T02:58:04;2.47;;;0.75;;
24034;SDS011;12242;50.952;4.678;2024-01-15T03:00:32;0.77;;;0.47;;
24034;SDS011;12242;50.952;4.678;2024-01-15T03:03:03;0.70;;;0.30;;
24034;SDS011;12242;50.952;4.678;2024-01-15T03:05:36;1.65;;;0.60;;
24034;SDS011;12242;50.952;4.678;2024-01-15T03:08:04;2.25;;;0.85;;
24034;SDS011;12242;50.952;4.678;2024-01-15T03:10:34;6.25;;;0.60;;
24034;SDS011;12242;50.952;4.678;2024-01-15T03:13:04;0.80;;;0.47;;
24034;SDS011;12242;50.952;4.678;2024-01-15T03:15:32;1.35;;;0.30;;
24034;SDS011;12242;50.952;4.678;2024-01-15T03:17:59;0.98;;;0.40;;
24034;SDS011;12242;50.952;4.678;2024-01-15T03:20:28;1.67;;;0.60;;
24034;SDS011;12242;50.952;4.678;2024-01-15T03:22:56;2.47;;;0.73;;
24034;SDS011;12242;50.952;4.678;2024-01-15T03:25:24;1.30;;;0.30;;
24034;SDS011;12242;50.952;4.678;2024-01-15T03:27:54;4.70;;;1.45;;
24034;SDS011;12242;50.952;4.678;2024-01-15T03:30:22;1.92;;;0.55;;
24034;SDS011;12242;50.952;4.678;2024-01-15T03:32:52;2.08;;;0.50;;
24034;SDS011;12242;50.952;4.678;2024-01-15T03:35:20;1.58;;;0.50;;
24034;SDS011;12242;50.952;4.678;2024-01-15T03:37:49;0.65;;;0.35;;
24034;SDS011;12242;50.952;4.678;2024-01-15T03:40:21;2.25;;;0.60;;
24034;SDS011;12242;50.952;4.678;2024-01-15T03:42:51;1.50;;;0.50;;
24034;SDS011;12242;50.952;4.678;2024-01-15T03:45:21;2.13;;;0.55;;
24034;SDS011;12242;50.952;4.678;2024-01-15T03:47:56;0.95;;;0.50;;
24034;SDS011;12242;50.952;4.678;2024-01-15T03:50:24;6.90;;;0.70;;
24034;SDS011;12242;50.952;4.678;2024-01-15T03:52:52;1.25;;;0.50;;
24034;SDS011;12242;50.952;4.678;2024-01-15T03:55:20;2.83;;;0.98;;
24034;SDS011;12242;50.952;4.678;2024-01-15T03:57:53;1.20;;;0.80;;
24034;SDS011;12242;50.952;4.678;2024-01-15T04:00:22;2.28;;;0.70;;
24034;SDS011;12242;50.952;4.678;2024-01-15T04:02:50;2.55;;;0.80;;
24034;SDS011;12242;50.952;4.678;2024-01-15T04:05:20;1.55;;;0.70;;
24034;SDS011;12242;50.952;4.678;2024-01-15T04:07:50;2.72;;;0.65;;
24034;SDS011;12242;50.952;4.678;2024-01-15T04:10:21;2.13;;;0.73;;
24034;SDS011;12242;50.952;4.678;2024-01-15T04:12:50;1.35;;;0.70;;
24034;SDS011;12242;50.952;4.678;2024-01-15T04:15:18;0.57;;;0.35;;
24034;SDS011;12242;50.952;4.678;2024-01-15T04:17:49;1.67;;;0.80;;
24034;SDS011;12242;50.952;4.678;2024-01-15T04:20:22;9.68;;;1.00;;
24034;SDS011;12242;50.952;4.678;2024-01-15T04:22:51;2.28;;;1.05;;
24034;SDS011;12242;50.952;4.678;2024-01-15T04:25:22;2.45;;;0.93;;
24034;SDS011;12242;50.952;4.678;2024-01-15T04:27:51;2.55;;;1.08;;
24034;SDS011;12242;50.952;4.678;2024-01-15T04:30:22;3.50;;;0.90;;
24034;SDS011;12242;50.952;4.678;2024-01-15T04:32:49;3.08;;;1.08;;
24034;SDS011;12242;50.952;4.678;2024-01-15T04:35:18;2.88;;;0.88;;
24034;SDS011;12242;50.952;4.678;2024-01-15T04:37:46;6.55;;;1.30;;
24034;SDS011;12242;50.952;4.678;2024-01-15T04:40:13;3.90;;;1.50;;
24034;SDS011;12242;50.952;4.678;2024-01-15T04:42:42;4.60;;;1.48;;
24034;SDS011;12242;50.952;4.678;2024-01-15T04:45:10;3.75;;;1.38;;
24034;SDS011;12242;50.952;4.678;2024-01-15T04:47:38;3.90;;;1.85;;
24034;SDS011;12242;50.952;4.678;2024-01-15T04:50:06;4.07;;;1.42;;
24034;SDS011;12242;50.952;4.678;2024-01-15T04:52:34;4.32;;;2.00;;
24034;SDS011;12242;50.952;4.678;2024-01-15T04:55:04;3.78;;;1.63;;
24034;SDS011;12242;50.952;4.678;2024-01-15T04:57:36;7.70;;;2.47;;
24034;SDS011;12242;50.952;4.678;2024-01-15T05:00:04;7.20;;;2.05;;
24034;SDS011;12242;50.952;4.678;2024-01-15T05:02:33;6.38;;;2.35;;
24034;SDS011;12242;50.952;4.678;2024-01-15T05:05:02;4.32;;;1.60;;
24034;SDS011;12242;50.952;4.678;2024-01-15T05:07:33;3.30;;;1.85;;
24034;SDS011;12242;50.952;4.678;2024-01-15T05:10:04;7.13;;;2.65;;
24034;SDS011;12242;50.952;4.678;2024-01-15T05:12:35;5.00;;;2.03;;
24034;SDS011;12242;50.952;4.678;2024-01-15T05:15:05;5.55;;;2.38;;
24034;SDS011;12242;50.952;4.678;2024-01-15T05:17:37;8.00;;;2.42;;
24034;SDS011;12242;50.952;4.678;2024-01-15T05:20:05;7.03;;;2.55;;
24034;SDS011;12242;50.952;4.678;2024-01-15T05:22:34;6.97;;;2.28;;
24034;SDS011;12242;50.952;4.678;2024-01-15T05:25:02;5.78;;;1.90;;
24034;SDS011;12242;50.952;4.678;2024-01-15T05:27:30;4.00;;;1.80;;
24034;SDS011;12242;50.952;4.678;2024-01-15T05:29:58;5.85;;;2.05;;
24034;SDS011;12242;50.952;4.678;2024-01-15T05:32:29;5.43;;;2.13;;
24034;SDS011;12242;50.952;4.678;2024-01-15T05:34:58;2.85;;;1.52;;
24034;SDS011;12242;50.952;4.678;2024-01-15T05:37:26;9.82;;;1.90;;
24034;SDS011;12242;50.952;4.678;2024-01-15T05:39:54;4.25;;;1.52;;
24034;SDS011;12242;50.952;4.678;2024-01-15T05:42:22;6.78;;;1.50;;
24034;SDS011;12242;50.952;4.678;2024-01-15T05:44:50;6.90;;;1.88;;
24034;SDS011;12242;50.952;4.678;2024-01-15T05:47:20;5.45;;;1.42;;
24034;SDS011;12242;50.952;4.678;2024-01-15T05:49:51;3.45;;;1.35;;
24034;SDS011;12242;50.952;4.678;2024-01-15T05:52:20;3.50;;;1.15;;
24034;SDS011;12242;50.952;4.678;2024-01-15T05:54:49;4.80;;;1.23;;
24034;SDS011;12242;50.952;4.678;2024-01-15T05:57:20;2.58;;;0.93;;
24034;SDS011;12242;50.952;4.678;2024-01-15T05:59:47;3.42;;;1.08;;
24034;SDS011;12242;50.952;4.678;2024-01-15T06:02:15;2.35;;;0.95;;
24034;SDS011;12242;50.952;4.678;2024-01-15T06:04:44;5.60;;;1.10;;
24034;SDS011;12242;50.952;4.678;2024-01-15T06:07:13;3.95;;;1.08;;
24034;SDS011;12242;50.952;4.678;2024-01-15T06:09:43;2.17;;;0.80;;
24034;SDS011;12242;50.952;4.678;2024-01-15T06:12:12;1.35;;;0.52;;
24034;SDS011;12242;50.952;4.678;2024-01-15T06:14:39;2.15;;;0.60;;
24034;SDS011;12242;50.952;4.678;2024-01-15T06:17:08;3.63;;;0.73;;
24034;SDS011;12242;50.952;4.678;2024-01-15T06:19:36;1.40;;;0.68;;
24034;SDS011;12242;50.952;4.678;2024-01-15T06:22:04;2.05;;;0.50;;
24034;SDS011;12242;50.952;4.678;2024-01-15T06:24:32;1.95;;;0.70;;
24034;SDS011;12242;50.952;4.678;2024-01-15T06:27:02;1.33;;;0.50;;
24034;SDS011;12242;50.952;4.678;2024-01-15T06:29:30;1.02;;;0.25;;
24034;SDS011;12242;50.952;4.678;2024-01-15T06:32:02;2.05;;;0.70;;
24034;SDS011;12242;50.952;4.678;2024-01-15T06:34:31;1.48;;;0.38;;
24034;SDS011;12242;50.952;4.678;2024-01-15T06:37:00;0.70;;;0.30;;
24034;SDS011;12242;50.952;4.678;2024-01-15T06:39:27;1.13;;;0.52;;
24034;SDS011;12242;50.952;4.678;2024-01-15T06:41:56;0.90;;;0.38;;
24034;SDS011;12242;50.952;4.678;2024-01-15T06:44:23;3.05;;;0.40;;
24034;SDS011;12242;50.952;4.678;2024-01-15T06:46:53;1.27;;;0.43;;
24034;SDS011;12242;50.952;4.678;2024-01-15T06:49:24;1.48;;;0.60;;
24034;SDS011;12242;50.952;4.678;2024-01-15T06:51:52;0.93;;;0.32;;
24034;SDS011;12242;50.952;4.678;2024-01-15T06:54:20;0.70;;;0.10;;
24034;SDS011;12242;50.952;4.678;2024-01-15T06:56:48;1.15;;;0.43;;
24034;SDS011;12242;50.952;4.678;2024-01-15T06:59:15;0.80;;;0.20;;
24034;SDS011;12242;50.952;4.678;2024-01-15T07:01:46;6.80;;;0.82;;
24034;SDS011;12242;50.952;4.678;2024-01-15T07:04:13;1.98;;;0.40;;
24034;SDS011;12242;50.952;4.678;2024-01-15T07:06:41;2.10;;;0.50;;
24034;SDS011;12242;50.952;4.678;2024-01-15T07:09:15;3.05;;;0.40;;
24034;SDS011;12242;50.952;4.678;2024-01-15T07:11:44;2.08;;;0.73;;
24034;SDS011;12242;50.952;4.678;2024-01-15T07:14:15;1.00;;;0.20;;
24034;SDS011;12242;50.952;4.678;2024-01-15T07:16:43;0.32;;;0.17;;
24034;SDS011;12242;50.952;4.678;2024-01-15T07:19:14;0.63;;;0.20;;
24034;SDS011;12242;50.952;4.678;2024-01-15T07:21:43;1.13;;;0.47;;
24034;SDS011;12242;50.952;4.678;2024-01-15T07:24:12;1.08;;;0.20;;
24034;SDS011;12242;50.952;4.678;2024-01-15T07:26:40;2.38;;;0.50;;
24034;SDS011;12242;50.952;4.678;2024-01-15T07:29:08;3.13;;;0.68;;
24034;SDS011;12242;50.952;4.678;2024-01-15T07:31:38;1.05;;;0.20;;
24034;SDS011;12242;50.952;4.678;2024-01-15T07:34:06;0.50;;;0.20;;
24034;SDS011;12242;50.952;4.678;2024-01-15T07:36:35;0.28;;;0.15;;
24034;SDS011;12242;50.952;4.678;2024-01-15T07:39:02;2.70;;;0.55;;
24034;SDS011;12242;50.952;4.678;2024-01-15T07:41:33;1.40;;;0.30;;
24034;SDS011;12242;50.952;4.678;2024-01-15T07:44:01;0.68;;;0.30;;
24034;SDS011;12242;50.952;4.678;2024-01-15T07:46:32;2.00;;;0.60;;
24034;SDS011;12242;50.952;4.678;2024-01-15T07:48:59;0.35;;;0.20;;
24034;SDS011;12242;50.952;4.678;2024-01-15T07:51:29;0.43;;;0.38;;
24034;SDS011;12242;50.952;4.678;2024-01-15T07:53:56;0.82;;;0.30;;
24034;SDS011;12242;50.952;4.678;2024-01-15T07:56:27;1.15;;;0.50;;
24034;SDS011;12242;50.952;4.678;2024-01-15T07:58:56;2.03;;;0.68;;
24034;SDS011;12242;50.952;4.678;2024-01-15T08:01:23;0.80;;;0.22;;
24034;SDS011;12242;50.952;4.678;2024-01-15T08:03:51;0.77;;;0.20;;
24034;SDS011;12242;50.952;4.678;2024-01-15T08:06:20;1.00;;;0.52;;
24034;SDS011;12242;50.952;4.678;2024-01-15T08:08:48;0.65;;;0.20;;
24034;SDS011;12242;50.952;4.678;2024-01-15T08:11:16;3.05;;;0.20;;
24034;SDS011;12242;50.952;4.678;2024-01-15T08:13:46;0.40;;;0.20;;
24034;SDS011;12242;50.952;4.678;2024-01-15T08:16:14;0.90;;;0.30;;
24034;SDS011;12242;50.952;4.678;2024-01-15T08:18:44;0.82;;;0.40;;
24034;SDS011;12242;50.952;4.678;2024-01-15T08:21:13;0.63;;;0.30;;
24034;SDS011;12242;50.952;4.678;2024-01-15T08:23:43;1.13;;;0.38;;
24034;SDS011;12242;50.952;4.678;2024-01-15T08:26:10;1.60;;;0.40;;
24034;SDS011;12242;50.952;4.678;2024-01-15T08:28:38;3.75;;;0.65;;
24034;SDS011;12242;50.952;4.678;2024-01-15T08:31:09;1.00;;;0.30;;
24034;SDS011;12242;50.952;4.678;2024-01-15T08:33:39;1.48;;;0.40;;
24034;SDS011;12242;50.952;4.678;2024-01-15T08:36:08;4.40;;;0.65;;
24034;SDS011;12242;50.952;4.678;2024-01-15T08:38:39;0.65;;;0.30;;
24034;SDS011;12242;50.952;4.678;2024-01-15T08:41:06;3.08;;;0.35;;
24034;SDS011;12242;50.952;4.678;2024-01-15T08:43:35;1.02;;;0.40;;
24034;SDS011;12242;50.952;4.678;2024-01-15T08:46:03;1.50;;;0.55;;
24034;SDS011;12242;50.952;4.678;2024-01-15T08:48:37;0.70;;;0.20;;
24034;SDS011;12242;50.952;4.678;2024-01-15T08:51:07;3.83;;;0.38;;
24034;SDS011;12242;50.952;4.678;2024-01-15T08:53:35;2.35;;;0.82;;
24034;SDS011;12242;50.952;4.678;2024-01-15T08:56:03;1.15;;;0.30;;
24034;SDS011;12242;50.952;4.678;2024-01-15T08:58:35;1.08;;;0.20;;
24034;SDS011;12242;50.952;4.678;2024-01-15T09:01:07;0.20;;;0.05;;
24034;SDS011;12242;50.952;4.678;2024-01-15T09:03:35;0.30;;;0.20;;
24034;SDS011;12242;50.952;4.678;2024-01-15T09:06:06;0.30;;;0.20;;
24034;SDS011;12242;50.952;4.678;2024-01-15T09:08:34;0.98;;;0.50;;
24034;SDS011;12242;50.952;4.678;2024-01-15T09:11:03;0.47;;;0.30;;
24034;SDS011;12242;50.952;4.678;2024-01-15T09:13:31;1.23;;;0.52;;
24034;SDS011;12242;50.952;4.678;2024-01-15T09:16:00;2.45;;;0.30;;
24034;SDS011;12242;50.952;4.678;2024-01-15T09:18:29;0.95;;;0.38;;
24034;SDS011;12242;50.952;4.678;2024-01-15T09:20:57;0.75;;;0.25;;
24034;SDS011;12242;50.952;4.678;2024-01-15T09:23:25;1.88;;;0.45;;
24034;SDS011;12242;50.952;4.678;2024-01-15T09:25:55;5.30;;;0.73;;
24034;SDS011;12242;50.952;4.678;2024-01-15T09:28:23;0.45;;;0.20;;
24034;SDS011;12242;50.952;4.678;2024-01-15T09:30:53;1.55;;;0.85;;
24034;SDS011;12242;50.952;4.678;2024-01-15T09:33:21;0.40;;;0.10;;
24034;SDS011;12242;50.952;4.678;2024-01-15T09:35:52;0.93;;;0.30;;
24034;SDS011;12242;50.952;4.678;2024-01-15T09:38:20;1.67;;;0.20;;
24034;SDS011;12242;50.952;4.678;2024-01-15T09:40:48;0.25;;;0.10;;
24034;SDS011;12242;50.952;4.678;2024-01-15T09:43:16;3.40;;;0.52;;
24034;SDS011;12242;50.952;4.678;2024-01-15T09:45:47;1.48;;;0.30;;
24034;SDS011;12242;50.952;4.678;2024-01-15T09:48:16;3.33;;;0.73;;
24034;SDS011;12242;50.952;4.678;2024-01-15T09:50:45;0.98;;;0.28;;
24034;SDS011;12242;50.952;4.678;2024-01-15T09:53:15;1.00;;;0.38;;
24034;SDS011;12242;50.952;4.678;2024-01-15T09:55:47;3.20;;;0.20;;
24034;SDS011;12242;50.952;4.678;2024-01-15T09:58:18;1.60;;;0.40;;
24034;SDS011;12242;50.952;4.678;2024-01-15T10:00:47;1.10;;;0.47;;
24034;SDS011;12242;50.952;4.678;2024-01-15T10:03:17;3.13;;;0.20;;
24034;SDS011;12242;50.952;4.678;2024-01-15T10:05:45;3.22;;;0.63;;
24034;SDS011;12242;50.952;4.678;2024-01-15T10:08:14;0.60;;;0.30;;
24034;SDS011;12242;50.952;4.678;2024-01-15T10:10:45;0.70;;;0.30;;
24034;SDS011;12242;50.952;4.678;2024-01-15T10:13:15;0.63;;;0.30;;
24034;SDS011;12242;50.952;4.678;2024-01-15T10:15:46;0.40;;;0.17;;
24034;SDS011;12242;50.952;4.678;2024-01-15T10:18:16;1.20;;;0.25;;
24034;SDS011;12242;50.952;4.678;2024-01-15T10:20:45;0.88;;;0.30;;
24034;SDS011;12242;50.952;4.678;2024-01-15T10:23:14;0.57;;;0.22;;
24034;SDS011;12242;50.952;4.678;2024-01-15T10:25:43;2.00;;;0.30;;
24034;SDS011;12242;50.952;4.678;2024-01-15T10:28:13;0.98;;;0.50;;
24034;SDS011;12242;50.952;4.678;2024-01-15T10:30:41;1.77;;;0.40;;
24034;SDS011;12242;50.952;4.678;2024-01-15T10:33:09;0.77;;;0.35;;
24034;SDS011;12242;50.952;4.678;2024-01-15T10:35:38;4.57;;;0.40;;
24034;SDS011;12242;50.952;4.678;2024-01-15T10:38:07;2.60;;;0.52;;
24034;SDS011;12242;50.952;4.678;2024-01-15T10:40:35;3.33;;;0.30;;
24034;SDS011;12242;50.952;4.678;2024-01-15T10:43:04;2.25;;;0.20;;
24034;SDS011;12242;50.952;4.678;2024-01-15T10:45:32;7.03;;;0.30;;
24034;SDS011;12242;50.952;4.678;2024-01-15T10:47:59;1.98;;;0.30;;
24034;SDS011;12242;50.952;4.678;2024-01-15T10:50:32;1.05;;;0.20;;
24034;SDS011;12242;50.952;4.678;2024-01-15T10:53:00;0.50;;;0.20;;
24034;SDS011;12242;50.952;4.678;2024-01-15T10:55:36;1.55;;;0.50;;
24034;SDS011;12242;50.952;4.678;2024-01-15T10:58:05;4.38;;;0.47;;
24034;SDS011;12242;50.952;4.678;2024-01-15T11:00:36;1.50;;;0.30;;
24034;SDS011;12242;50.952;4.678;2024-01-15T11:03:06;1.10;;;0.50;;
24034;SDS011;12242;50.952;4.678;2024-01-15T11:05:38;0.30;;;0.20;;
24034;SDS011;12242;50.952;4.678;2024-01-15T11:08:09;2.60;;;0.28;;
24034;SDS011;12242;50.952;4.678;2024-01-15T11:10:41;0.90;;;0.30;;
24034;SDS011;12242;50.952;4.678;2024-01-15T11:13:14;0.50;;;0.20;;
24034;SDS011;12242;50.952;4.678;2024-01-15T11:16:09;0.95;;;0.20;;
24034;SDS011;12242;50.952;4.678;2024-01-15T11:21:28;0.60;;;0.25;;
24034;SDS011;12242;50.952;4.678;2024-01-15T11:24:00;1.45;;;0.75;;
24034;SDS011;12242;50.952;4.678;2024-01-15T11:26:35;2.35;;;0.30;;
24034;SDS011;12242;50.952;4.678;2024-01-15T11:34:07;0.80;;;0.43;;
24034;SDS011;12242;50.952;4.678;2024-01-15T11:42:05;0.43;;;0.20;;
24034;SDS011;12242;50.952;4.678;2024-01-15T11:44:33;0.65;;;0.20;;
24034;SDS011;12242;50.952;4.678;2024-01-15T11:47:02;0.40;;;0.15;;
24034;SDS011;12242;50.952;4.678;2024-01-15T11:52:18;0.57;;;0.10;;
24034;SDS011;12242;50.952;4.678;2024-01-15T11:55:35;2.95;;;0.30;;
24034;SDS011;12242;50.952;4.678;2024-01-15T11:57:47;1.20;;;0.20;;
24034;SDS011;12242;50.952;4.678;2024-01-15T12:00:17;1.65;;;0.30;;
24034;SDS011;12242;50.952;4.678;2024-01-15T12:02:47;0.77;;;0.43;;
24034;SDS011;12242;50.952;4.678;2024-01-15T12:05:16;1.75;;;0.30;;
24034;SDS011;12242;50.952;4.678;2024-01-15T12:07:46;0.38;;;0.10;;
24034;SDS011;12242;50.952;4.678;2024-01-15T12:10:16;0.38;;;0.20;;
24034;SDS011;12242;50.952;4.678;2024-01-15T12:15:28;3.90;;;0.47;;
24034;SDS011;12242;50.952;4.678;2024-01-15T12:17:57;1.67;;;0.43;;
24034;SDS011;12242;50.952;4.678;2024-01-15T12:20:26;0.20;;;0.10;;
24034;SDS011;12242;50.952;4.678;2024-01-15T12:22:58;2.42;;;0.30;;
24034;SDS011;12242;50.952;4.678;2024-01-15T12:25:30;3.83;;;0.70;;
24034;SDS011;12242;50.952;4.678;2024-01-15T12:27:59;4.35;;;0.20;;
24034;SDS011;12242;50.952;4.678;2024-01-15T12:30:28;2.47;;;0.17;;
24034;SDS011;12242;50.952;4.678;2024-01-15T12:33:04;0.38;;;0.13;;
24034;SDS011;12242;50.952;4.678;2024-01-15T12:35:33;0.70;;;0.30;;
24034;SDS011;12242;50.952;4.678;2024-01-15T12:38:02;0.73;;;0.20;;
24034;SDS011;12242;50.952;4.678;2024-01-15T12:40:30;0.52;;;0.28;;
24034;SDS011;12242;50.952;4.678;2024-01-15T12:43:00;0.95;;;0.35;;
24034;SDS011;12242;50.952;4.678;2024-01-15T12:45:29;2.38;;;0.57;;
24034;SDS011;12242;50.952;4.678;2024-01-15T12:47:57;0.52;;;0.20;;
24034;SDS011;12242;50.952;4.678;2024-01-15T12:50:25;2.17;;;0.45;;
24034;SDS011;12242;50.952;4.678;2024-01-15T12:52:53;1.02;;;0.30;;
24034;SDS011;12242;50.952;4.678;2024-01-15T12:55:21;0.52;;;0.20;;
24034;SDS011;12242;50.952;4.678;2024-01-15T12:57:51;1.88;;;0.22;;
24034;SDS011;12242;50.952;4.678;2024-01-15T13:00:22;1.73;;;0.17;;
24034;SDS011;12242;50.952;4.678;2024-01-15T13:02:50;0.30;;;0.00;;
24034;SDS011;12242;50.952;4.678;2024-01-15T13:05:21;0.10;;;0.08;;
24034;SDS011;12242;50.952;4.678;2024-01-15T13:07:51;0.50;;;0.20;;
24034;SDS011;12242;50.952;4.678;2024-01-15T13:10:18;1.15;;;0.20;;
24034;SDS011;12242;50.952;4.678;2024-01-15T13:12:50;0.47;;;0.10;;
24034;SDS011;12242;50.952;4.678;2024-01-15T13:15:18;0.43;;;0.20;;
24034;SDS011;12242;50.952;4.678;2024-01-15T13:17:46;2.53;;;0.20;;
24034;SDS011;12242;50.952;4.678;2024-01-15T13:20:14;0.30;;;0.28;;
24034;SDS011;12242;50.952;4.678;2024-01-15T13:22:41;0.17;;;0.10;;
24034;SDS011;12242;50.952;4.678;2024-01-15T13:25:11;0.95;;;0.20;;
24034;SDS011;12242;50.952;4.678;2024-01-15T13:27:41;0.73;;;0.30;;
24034;SDS011;12242;50.952;4.678;2024-01-15T13:30:11;2.55;;;0.20;;
24034;SDS011;12242;50.952;4.678;2024-01-15T13:32:40;0.30;;;0.20;;
24034;SDS011;12242;50.952;4.678;2024-01-15T13:35:08;0.68;;;0.20;;
24034;SDS011;12242;50.952;4.678;2024-01-15T13:37:40;0.20;;;0.15;;
24034;SDS011;12242;50.952;4.678;2024-01-15T13:40:08;1.35;;;0.40;;
24034;SDS011;12242;50.952;4.678;2024-01-15T13:42:37;0.85;;;0.30;;
24034;SDS011;12242;50.952;4.678;2024-01-15T13:45:10;0.32;;;0.17;;
24034;SDS011;12242;50.952;4.678;2024-01-15T13:47:40;0.30;;;0.10;;
24034;SDS011;12242;50.952;4.678;2024-01-15T13:50:11;0.17;;;0.00;;
24034;SDS011;12242;50.952;4.678;2024-01-15T13:52:39;0.15;;;0.05;;
24034;SDS011;12242;50.952;4.678;2024-01-15T13:55:10;0.20;;;0.10;;
24034;SDS011;12242;50.952;4.678;2024-01-15T13:57:37;0.45;;;0.20;;
24034;SDS011;12242;50.952;4.678;2024-01-15T14:00:05;0.22;;;0.10;;
24034;SDS011;12242;50.952;4.678;2024-01-15T14:02:39;0.75;;;0.28;;
24034;SDS011;12242;50.952;4.678;2024-01-15T14:05:08;0.40;;;0.10;;
24034;SDS011;12242;50.952;4.678;2024-01-15T14:07:40;0.30;;;0.10;;
24034;SDS011;12242;50.952;4.678;2024-01-15T14:10:11;0.00;;;0.00;;
24034;SDS011;12242;50.952;4.678;2024-01-15T14:12:39;0.45;;;0.17;;
24034;SDS011;12242;50.952;4.678;2024-01-15T14:15:07;0.10;;;0.03;;
24034;SDS011;12242;50.952;4.678;2024-01-15T14:17:36;0.20;;;0.10;;
24034;SDS011;12242;50.952;4.678;2024-01-15T14:20:05;1.58;;;0.45;;
24034;SDS011;12242;50.952;4.678;2024-01-15T14:22:33;0.80;;;0.30;;
24034;SDS011;12242;50.952;4.678;2024-01-15T14:25:04;0.25;;;0.08;;
24034;SDS011;12242;50.952;4.678;2024-01-15T14:27:32;0.65;;;0.17;;
24034;SDS011;12242;50.952;4.678;2024-01-15T14:30:05;0.47;;;0.15;;
24034;SDS011;12242;50.952;4.678;2024-01-15T14:32:36;0.10;;;0.10;;
24034;SDS011;12242;50.952;4.678;2024-01-15T14:35:07;0.25;;;0.10;;
24034;SDS011;12242;50.952;4.678;2024-01-15T14:37:37;0.93;;;0.17;;
24034;SDS011;12242;50.952;4.678;2024-01-15T14:40:05;1.17;;;0.20;;
24034;SDS011;12242;50.952;4.678;2024-01-15T14:42:37;0.40;;;0.10;;
24034;SDS011;12242;50.952;4.678;2024-01-15T14:45:06;0.20;;;0.20;;
24034;SDS011;12242;50.952;4.678;2024-01-15T14:47:39;0.60;;;0.30;;
24034;SDS011;12242;50.952;4.678;2024-01-15T14:50:11;1.02;;;0.20;;
24034;SDS011;12242;50.952;4.678;2024-01-15T14:52:40;0.17;;;0.13;;
24034;SDS011;12242;50.952;4.678;2024-01-15T14:55:13;0.40;;;0.20;;
24034;SDS011;12242;50.952;4.678;2024-01-15T14:57:41;1.13;;;0.40;;
24034;SDS011;12242;50.952;4.678;2024-01-15T15:00:09;0.32;;;0.10;;
24034;SDS011;12242;50.952;4.678;2024-01-15T15:02:37;1.00;;;0.30;;
24034;SDS011;12242;50.952;4.678;2024-01-15T15:05:05;1.00;;;0.30;;
24034;SDS011;12242;50.952;4.678;2024-01-15T15:07:34;1.45;;;0.32;;
24034;SDS011;12242;50.952;4.678;2024-01-15T15:10:04;0.47;;;0.20;;
24034;SDS011;12242;50.952;4.678;2024-01-15T15:12:33;0.57;;;0.28;;
24034;SDS011;12242;50.952;4.678;2024-01-15T15:15:01;0.80;;;0.30;;
24034;SDS011;12242;50.952;4.678;2024-01-15T15:17:37;1.33;;;0.50;;
24034;SDS011;12242;50.952;4.678;2024-01-15T15:20:06;1.77;;;0.60;;
24034;SDS011;12242;50.952;4.678;2024-01-15T15:22:34;1.65;;;0.40;;